PAHL

Huslia Airport

Airport
ICAO code
PAHL
IATA Code
HSL
Summary
ICAO Region
NAM
ICAO Territory
Location

, Alaska

Serving
Huslia
Elevation
220 ft
Coordinates
65° 41' 52" N , 156° 21' 5" W
Metar
PAHL 151956Z AUTO 28008KT 10SM CLR 15/05 A3022 RMK AO2 SLP235 T01500050 TSNO

Runways

Designator Length Width Surface Rops
3/21 1219 23 GVL No/No

Airport map

Aerial View

SKYbrary Partners:

Safety knowledge contributed by: